createdAt,value
2018-06-29T00:00:00.405Z,11.12
2018-06-29T00:05:05.810Z,9.65
2018-06-29T00:10:12.192Z,15.35
2018-06-29T00:15:16.776Z,12.50
2018-06-29T00:20:21.668Z,13.48
2018-06-29T00:25:26.396Z,14.60
2018-06-29T00:30:34.875Z,11.73
2018-06-29T00:35:40.250Z,13.32
2018-06-29T00:40:45.101Z,15.18
2018-06-29T00:45:49.938Z,12.88
2018-06-29T00:50:54.686Z,13.18
2018-06-29T00:55:59.814Z,11.55
2018-06-29T01:01:05.272Z,13.22
2018-06-29T01:06:10.240Z,13.40
2018-06-29T01:11:14.489Z,13.48
2018-06-29T01:16:19.414Z,13.75
2018-06-29T01:21:24.369Z,13.30
2018-06-29T01:26:29.389Z,16.05
2018-06-29T01:31:34.349Z,14.40
2018-06-29T01:36:39.194Z,15.40
2018-06-29T01:41:44.237Z,16.82
2018-06-29T01:46:49.065Z,16.12
2018-06-29T01:51:54.293Z,16.35
2018-06-29T01:56:59.259Z,20.23
2018-06-29T02:02:04.522Z,18.32
2018-06-29T02:07:09.256Z,17.90
2018-06-29T02:12:15.156Z,17.17
2018-06-29T02:17:20.064Z,17.42
2018-06-29T02:22:24.810Z,19.10
2018-06-29T02:27:29.462Z,18.35
2018-06-29T02:32:34.278Z,17.07
2018-06-29T02:37:39.028Z,17.20
2018-06-29T02:42:43.836Z,17.55
2018-06-29T02:47:48.640Z,18.42
2018-06-29T02:52:53.533Z,17.10
2018-06-29T02:57:58.181Z,17.45
2018-06-29T03:03:03.129Z,19.48
2018-06-29T03:08:07.967Z,17.52
2018-06-29T03:13:12.809Z,17.30
2018-06-29T03:18:17.569Z,18.70
2018-06-29T03:23:22.316Z,15.78
2018-06-29T03:28:27.598Z,13.78
2018-06-29T03:33:33.590Z,13.03
2018-06-29T03:38:38.331Z,14.30
2018-06-29T03:43:42.983Z,13.40
2018-06-29T03:48:47.805Z,13.00
2018-06-29T03:53:53.174Z,12.45
2018-06-29T03:58:57.903Z,12.82
2018-06-29T04:04:02.720Z,15.20
2018-06-29T04:09:09.108Z,13.48
2018-06-29T04:14:13.880Z,14.43
2018-06-29T04:19:18.499Z,13.10
2018-06-29T04:24:23.407Z,12.93
2018-06-29T04:29:28.305Z,14.43
2018-06-29T04:34:33.240Z,15.43
2018-06-29T04:39:37.876Z,14.28
2018-06-29T04:44:42.568Z,12.95
2018-06-29T04:49:47.360Z,13.53
2018-06-29T04:54:53.028Z,14.78
2018-06-29T04:59:57.968Z,16.35
2018-06-29T05:05:02.952Z,16.23
2018-06-29T05:10:07.958Z,13.80
2018-06-29T05:15:12.796Z,14.20
2018-06-29T05:20:17.427Z,16.35
2018-06-29T05:25:22.179Z,18.00
2018-06-29T05:30:27.025Z,17.30
2018-06-29T05:35:32.023Z,15.15
2018-06-29T05:40:36.805Z,15.20
2018-06-29T05:45:42.170Z,15.08
2018-06-29T05:50:48.430Z,14.20
2018-06-29T05:55:53.383Z,12.55
2018-06-29T06:00:57.698Z,12.85
2018-06-29T06:06:03.097Z,10.65
2018-06-29T06:11:08.064Z,10.48
2018-06-29T06:16:12.891Z,8.25
2018-06-29T06:21:17.465Z,9.48
2018-06-29T06:26:22.274Z,8.55
2018-06-29T06:31:27.022Z,8.13
2018-06-29T06:36:32.430Z,9.88
2018-06-29T06:41:37.218Z,11.15
2018-06-29T06:46:42.117Z,12.00
2018-06-29T06:51:46.778Z,12.88
2018-06-29T06:56:51.618Z,14.13
2018-06-29T07:01:56.536Z,13.48
2018-06-29T07:07:01.376Z,13.35
2018-06-29T07:12:06.458Z,12.68
2018-06-29T07:17:11.270Z,14.83
2018-06-29T07:22:15.496Z,15.63
2018-06-29T07:27:19.919Z,13.88
2018-06-29T07:32:24.741Z,11.78
2018-06-29T07:37:29.490Z,13.15
2018-06-29T07:42:34.640Z,15.60
2018-06-29T07:47:39.292Z,14.23
2018-06-29T07:52:44.034Z,14.18
2018-06-29T07:57:48.940Z,13.78
2018-06-29T08:02:53.698Z,14.80
2018-06-29T08:07:58.996Z,10.38
2018-06-29T08:13:03.821Z,11.95
2018-06-29T08:18:08.561Z,12.00
2018-06-29T08:23:14.724Z,13.53
2018-06-29T08:28:19.363Z,13.53
2018-06-29T08:33:24.404Z,12.68
2018-06-29T08:38:29.442Z,17.48
2018-06-29T08:43:34.470Z,16.85
2018-06-29T08:48:39.836Z,18.87
2018-06-29T08:53:45.400Z,13.90
2018-06-29T08:58:50.511Z,15.45
2018-06-29T09:03:55.407Z,16.10
2018-06-29T09:09:00.238Z,14.45
2018-06-29T09:14:05.625Z,14.20
2018-06-29T09:19:10.671Z,12.95
2018-06-29T09:24:15.626Z,13.22
2018-06-29T09:29:20.558Z,13.50
2018-06-29T09:34:25.274Z,16.15
2018-06-29T09:39:30.436Z,13.70
2018-06-29T09:44:35.505Z,17.90
2018-06-29T09:49:40.431Z,17.50
2018-06-29T09:54:45.482Z,16.23
2018-06-29T09:59:50.117Z,15.72
2018-06-29T10:04:55.081Z,13.20
2018-06-29T10:09:59.787Z,12.93
2018-06-29T10:15:04.853Z,9.93
2018-06-29T10:20:09.666Z,8.55
2018-06-29T10:25:14.843Z,13.43
2018-06-29T10:30:19.670Z,14.25
2018-06-29T10:35:24.629Z,12.37
2018-06-29T10:40:29.384Z,12.70
2018-06-29T10:45:34.184Z,10.70
2018-06-29T10:50:39.032Z,11.22
2018-06-29T10:55:44.305Z,12.75
2018-06-29T11:00:48.965Z,10.72
2018-06-29T11:05:54.003Z,13.98
2018-06-29T11:10:58.969Z,10.75
2018-06-29T11:16:04.578Z,10.55
2018-06-29T11:21:09.312Z,10.53
2018-06-29T11:26:14.188Z,11.70
2018-06-29T11:31:18.812Z,9.33
2018-06-29T11:36:23.077Z,10.45
2018-06-29T11:41:28.286Z,10.78
2018-06-29T11:46:33.247Z,11.10
2018-06-29T11:51:37.853Z,9.78
2018-06-29T11:56:42.582Z,9.35
2018-06-29T12:01:47.461Z,10.38
2018-06-29T12:06:52.406Z,9.03
2018-06-29T12:11:57.149Z,9.05
2018-06-29T12:17:02.036Z,12.98
2018-06-29T12:22:08.077Z,8.98
2018-06-29T12:27:12.686Z,9.25
2018-06-29T12:32:18.145Z,10.50
2018-06-29T12:37:23.158Z,9.40
2018-06-29T12:42:28.128Z,9.53
2018-06-29T12:47:32.869Z,8.85
2018-06-29T12:52:37.441Z,9.95
2018-06-29T12:57:42.382Z,8.78
2018-06-29T13:02:46.599Z,8.93
2018-06-29T13:07:51.249Z,25.77
2018-06-29T13:12:56.994Z,8.50
2018-06-29T13:18:01.578Z,10.10
2018-06-29T13:23:06.242Z,11.28
2018-06-29T13:28:11.108Z,8.43
2018-06-29T13:33:15.448Z,9.08
2018-06-29T13:38:20.299Z,9.25
2018-06-29T13:43:24.995Z,6.83
2018-06-29T13:48:30.192Z,8.13
2018-06-29T13:53:35.233Z,7.45
2018-06-29T13:58:39.855Z,7.00
2018-06-29T14:03:44.597Z,8.03
2018-06-29T14:08:48.960Z,8.48
2018-06-29T14:13:53.748Z,7.67
2018-06-29T14:18:59.041Z,8.80
2018-06-29T14:24:04.766Z,9.28
2018-06-29T14:29:09.738Z,8.60
2018-06-29T14:34:14.573Z,8.08
2018-06-29T14:39:19.568Z,7.47
2018-06-29T14:44:24.733Z,8.35
2018-06-29T14:49:30.983Z,9.45
2018-06-29T14:54:36.018Z,9.23
2018-06-29T14:59:41.024Z,7.85
2018-06-29T15:04:45.966Z,7.67
2018-06-29T15:09:51.136Z,6.55
2018-06-29T15:14:56.298Z,7.55
2018-06-29T15:20:01.432Z,7.65
2018-06-29T15:25:06.468Z,6.97
2018-06-29T15:30:11.545Z,7.53
2018-06-29T15:35:16.454Z,7.58
2018-06-29T15:40:21.367Z,8.38
2018-06-29T15:45:26.237Z,10.38
2018-06-29T15:50:31.370Z,7.22
2018-06-29T15:55:36.220Z,9.98
2018-06-29T16:00:41.132Z,6.78
2018-06-29T16:05:46.829Z,7.70
2018-06-29T16:10:51.632Z,8.45
2018-06-29T16:15:56.472Z,7.28
2018-06-29T16:21:01.439Z,8.30
2018-06-29T16:26:06.369Z,6.67
2018-06-29T16:31:11.132Z,6.55
2018-06-29T16:36:16.039Z,9.33
2018-06-29T16:41:20.738Z,7.40
2018-06-29T16:46:25.596Z,9.73
2018-06-29T16:51:30.338Z,7.20
2018-06-29T16:56:35.181Z,7.28
2018-06-29T17:01:40.008Z,7.70
2018-06-29T17:06:44.955Z,9.45
2018-06-29T17:11:50.000Z,7.22
2018-06-29T17:16:55.203Z,8.13
2018-06-29T17:22:00.089Z,8.20
2018-06-29T17:27:04.860Z,8.28
2018-06-29T17:32:10.290Z,6.90
2018-06-29T17:37:15.363Z,7.87
2018-06-29T17:42:20.167Z,7.12
2018-06-29T17:47:24.920Z,8.18
2018-06-29T17:52:30.338Z,7.92
2018-06-29T17:57:35.211Z,9.03
2018-06-29T18:02:40.569Z,8.95
2018-06-29T18:07:45.596Z,7.97
2018-06-29T18:12:50.613Z,9.50
2018-06-29T18:17:55.801Z,7.95
2018-06-29T18:23:00.913Z,8.93
2018-06-29T18:28:05.617Z,7.58
2018-06-29T18:33:15.540Z,7.42
2018-06-29T18:38:20.474Z,8.53
2018-06-29T18:43:25.353Z,7.95
2018-06-29T18:48:31.934Z,9.10
2018-06-29T18:53:37.197Z,7.90
2018-06-29T18:58:42.191Z,11.08
2018-06-29T19:03:46.801Z,10.55
2018-06-29T19:08:51.729Z,9.90
2018-06-29T19:13:56.669Z,9.28
2018-06-29T19:19:01.619Z,9.78
2018-06-29T19:24:05.912Z,10.25
2018-06-29T19:29:10.780Z,10.30
2018-06-29T19:34:15.498Z,9.60
2018-06-29T19:39:20.480Z,10.95
2018-06-29T19:44:25.403Z,9.15
2018-06-29T19:49:30.205Z,10.18
2018-06-29T19:54:34.929Z,10.48
2018-06-29T19:59:40.012Z,9.95
2018-06-29T20:04:45.261Z,11.57
2018-06-29T20:09:49.984Z,11.78
2018-06-29T20:14:54.224Z,12.28
2018-06-29T20:19:59.067Z,13.48
2018-06-29T20:25:03.980Z,11.38
2018-06-29T20:30:09.450Z,13.00
2018-06-29T20:35:14.384Z,13.85
2018-06-29T20:40:19.104Z,15.32
2018-06-29T20:45:23.882Z,12.50
2018-06-29T20:50:28.641Z,15.10
2018-06-29T20:55:33.513Z,15.75
2018-06-29T21:00:38.473Z,15.18
2018-06-29T21:05:43.317Z,13.55
2018-06-29T21:10:48.147Z,13.38
2018-06-29T21:15:53.816Z,15.83
2018-06-29T21:20:58.761Z,12.90
2018-06-29T21:26:03.793Z,15.30
2018-06-29T21:31:08.444Z,16.52
2018-06-29T21:36:13.152Z,18.75
2018-06-29T21:41:17.881Z,13.85
2018-06-29T21:46:22.830Z,14.43
2018-06-29T21:51:27.673Z,14.53
2018-06-29T21:56:32.315Z,14.93
2018-06-29T22:01:37.998Z,15.90
2018-06-29T22:06:42.902Z,15.90
2018-06-29T22:11:47.943Z,16.15
2018-06-29T22:16:52.779Z,15.53
2018-06-29T22:21:57.529Z,14.60
2018-06-29T22:27:02.214Z,16.75
2018-06-29T22:32:06.918Z,16.40
2018-06-29T22:37:11.829Z,16.37
2018-06-29T22:42:16.458Z,13.68
2018-06-29T22:47:22.408Z,14.00
2018-06-29T22:52:27.338Z,15.75
2018-06-29T22:57:32.115Z,14.65
2018-06-29T23:02:36.466Z,15.35
2018-06-29T23:07:41.273Z,17.25
2018-06-29T23:12:46.111Z,18.85
2018-06-29T23:17:50.952Z,13.68
2018-06-29T23:22:55.820Z,17.17
2018-06-29T23:28:09.503Z,16.67
2018-06-29T23:33:15.712Z,16.97
2018-06-29T23:38:20.377Z,15.45
2018-06-29T23:43:25.288Z,16.07
2018-06-29T23:48:30.458Z,15.25
2018-06-29T23:53:35.274Z,17.27
2018-06-29T23:58:40.209Z,15.35
